Edinburgh, Verenigd Koninkrijk

5:16 AM GMT op 01 november 2014 (GMT +0000)
Edinburgh Airport | Change Station
CLOSE
Current Station
Luchthaven
Location: Edinburgh Airport,
Geometrische hoogte: 135 ft
Nabije weerstations

Hoogte 135 ft 55.95 °N, 3.35 °W | Updated 26 minutes ago

Partly Cloudy
Gedeeltelijk bewolkt
54 °F
Voelt als 54 °F
N
10
Wind Variabel Wind van ZW

Vandaag
Hoog -- | Laag -- °F
--% Kans op neerslag
Gisteren
Hoog -- | Laag -- °F
Precip. -- inches
7:19 AM 4:33 PM
Wassende maan, 62% visible
Druk 29.65 inches
Zicht 6.2 mijlen
Wolken Gering 2200 ft
Dauwpunt 48 °F
Vochtigheid 82%
Neerslag 0.00 inches
Dikte sneeuw Niet beschikbaar.
UV 0 van de 12
Pollen Niet beschikbaar.
Luchtkwaliteit Niet beschikbaar.
Flu Activity Niet beschikbaar.
METAR EGPH 010450Z 22009KT 9999 FEW022 12/09 Q1004

More Conditions Fewer Conditions

Druk 29.65 inches
Zicht 6.2 mijlen
Wolken Gering 2200 ft
Dauwpunt 48 °F
Vochtigheid 82%
Neerslag 0.00 inches
Dikte sneeuw Niet beschikbaar.
UV 0 van de 12
Pollen Niet beschikbaar.
Luchtkwaliteit Niet beschikbaar.
Flu Activity Niet beschikbaar.
METAR EGPH 010450Z 22009KT 9999 FEW022 12/09 Q1004

More Conditions Fewer Conditions

10-Day Weather Forecast

Almanac

Astronomie

Nov. 01, 2014 Opkomst Ondergang
Werkelijke tijd
Burgerlijke schemering
Nautische schemering
Astronomische schemering
Maan
Golflengte van het zichtbare licht
Daglengte
Tomorrow will be .
, % of the Moon is Illuminated

Extremen vandaag

Country Highs Country Lows

Community

WunderPhotos

Upload Photos

1,766,857 foto’s ge-upload!

WunderBlogs® & News

Nearby

Luchtkwaliteit

  Luchtkwaliteit LK-index Verontreinigende stof
Not available.

Dikte sneeuw

Station Depth Geometrische hoogte

Aardbevingen

Stad Distance Mag. Time & Date
Minimum magnitude displayed is 2.5.

Watertemperatuur langs de kust

Plaats Temperatuur

Nabije weerstations